Time;durP1;ratioP1;P1;durP2;ratioP2;P2;SDS_P1;SDS_P2;PMS_P1;PMS_P2;Temp;Humidity;BMP_temperature;BMP_pressure;BME280_temperature;BME280_humidity;BME280_pressure;Samples;Min_cycle;Max_cycle;Signal;HPM_P1;HPM_P2
2023/08/13 00:00:04;;;;;;;0.10;0.10;;;;;;;;;;5053131;28;20025;-75
2023/08/13 00:02:30;;;;;;;0.45;0.20;;;;;;;;;;5053208;28;20032;-75
2023/08/13 00:04:56;;;;;;;0.00;0.00;;;;;;;;;;5053590;28;20083;-74
2023/08/13 00:07:22;;;;;;;0.10;0.10;;;;;;;;;;5053532;28;20029;-75
2023/08/13 00:09:48;;;;;;;0.00;0.00;;;;;;;;;;5053413;28;20092;-75
2023/08/13 00:12:14;;;;;;;0.00;0.00;;;;;;;;;;5053263;28;20132;-75
2023/08/13 00:14:40;;;;;;;0.00;0.00;;;;;;;;;;5053183;28;20017;-75
2023/08/13 00:17:06;;;;;;;0.00;0.00;;;;;;;;;;5053329;28;20032;-75
2023/08/13 00:19:32;;;;;;;0.00;0.00;;;;;;;;;;5052923;28;20037;-75
2023/08/13 00:21:58;;;;;;;0.08;0.08;;;;;;;;;;5052377;28;20466;-74
2023/08/13 00:24:24;;;;;;;0.00;0.00;;;;;;;;;;5052984;28;20048;-75
2023/08/13 00:26:50;;;;;;;0.10;0.10;;;;;;;;;;5052962;28;20055;-75
2023/08/13 00:29:16;;;;;;;0.25;0.20;;;;;;;;;;5052688;28;20478;-75
2023/08/13 00:31:42;;;;;;;0.65;0.32;;;;;;;;;;5052880;28;20029;-75
2023/08/13 00:34:08;;;;;;;0.00;0.00;;;;;;;;;;5053016;28;20059;-75
2023/08/13 00:36:34;;;;;;;0.20;0.20;;;;;;;;;;5053014;28;20033;-75
2023/08/13 00:39:00;;;;;;;0.30;0.30;;;;;;;;;;5052874;28;20025;-75
2023/08/13 00:41:26;;;;;;;0.00;0.00;;;;;;;;;;5052755;28;20440;-75
2023/08/13 00:43:52;;;;;;;0.00;0.00;;;;;;;;;;5052580;28;20021;-75
2023/08/13 00:46:18;;;;;;;0.10;0.10;;;;;;;;;;5053042;28;20025;-75
2023/08/13 00:48:44;;;;;;;0.10;0.10;;;;;;;;;;5052934;28;20086;-75
2023/08/13 00:51:11;;;;;;;0.13;0.13;;;;;;;;;;5052507;28;20417;-75
2023/08/13 00:53:43;;;;;;;0.00;0.00;;;;;;;;;;5052783;28;20465;-75
2023/08/13 00:56:09;;;;;;;0.00;0.00;;;;;;;;;;5052555;28;20071;-75
2023/08/13 00:58:35;;;;;;;0.10;0.10;;;;;;;;;;5052200;28;20032;-75
2023/08/13 01:01:01;;;;;;;0.00;0.00;;;;;;;;;;5052480;28;20045;-75
2023/08/13 01:03:27;;;;;;;0.00;0.00;;;;;;;;;;5051858;28;20428;-75
2023/08/13 01:06:03;;;;;;;0.10;0.10;;;;;;;;;;5051887;28;20021;-75
2023/08/13 01:08:48;;;;;;;0.00;0.00;;;;;;;;;;5052243;28;20025;-75
2023/08/13 01:11:20;;;;;;;0.00;0.00;;;;;;;;;;5051858;28;20063;-75
2023/08/13 01:13:53;;;;;;;0.50;0.13;;;;;;;;;;5052428;28;20029;-75
2023/08/13 01:16:19;;;;;;;0.00;0.00;;;;;;;;;;5052617;28;20033;-75
2023/08/13 01:18:46;;;;;;;0.00;0.00;;;;;;;;;;5052373;28;20485;-75
2023/08/13 01:21:12;;;;;;;0.13;0.13;;;;;;;;;;5051749;28;20064;-75
2023/08/13 01:23:38;;;;;;;0.00;0.00;;;;;;;;;;5052250;28;20024;-75
2023/08/13 01:26:15;;;;;;;0.00;0.00;;;;;;;;;;5051866;28;20045;-75
2023/08/13 01:28:44;;;;;;;0.00;0.00;;;;;;;;;;5050822;28;20374;-75
2023/08/13 01:31:16;;;;;;;0.20;0.15;;;;;;;;;;5052101;28;20029;-75
2023/08/13 01:33:43;;;;;;;0.10;0.10;;;;;;;;;;5055716;28;20021;-75
2023/08/13 01:36:10;;;;;;;0.10;0.10;;;;;;;;;;5055007;28;20035;-75
2023/08/13 01:38:36;;;;;;;0.10;0.10;;;;;;;;;;5056205;28;20078;-75
2023/08/13 01:41:03;;;;;;;0.00;0.00;;;;;;;;;;5055710;28;20028;-75
2023/08/13 01:43:29;;;;;;;0.00;0.00;;;;;;;;;;5056287;28;20470;-75
2023/08/13 01:45:55;;;;;;;0.00;0.00;;;;;;;;;;5056300;28;20060;-75
2023/08/13 01:48:21;;;;;;;0.00;0.00;;;;;;;;;;5056287;28;20549;-75
2023/08/13 01:50:47;;;;;;;0.10;0.10;;;;;;;;;;5055914;28;20482;-75
2023/08/13 01:53:13;;;;;;;0.00;0.00;;;;;;;;;;5056000;28;20036;-75
2023/08/13 01:55:39;;;;;;;0.00;0.00;;;;;;;;;;5055744;28;20057;-75
2023/08/13 01:58:05;;;;;;;0.10;0.10;;;;;;;;;;5054592;28;20052;-75
2023/08/13 02:00:31;;;;;;;0.10;0.10;;;;;;;;;;5055702;28;20080;-75
2023/08/13 02:02:57;;;;;;;0.45;0.30;;;;;;;;;;5055916;28;20025;-75
2023/08/13 02:05:23;;;;;;;0.10;0.10;;;;;;;;;;5055634;28;20037;-75
2023/08/13 02:07:49;;;;;;;0.00;0.00;;;;;;;;;;5055554;28;20078;-75
2023/08/13 02:10:15;;;;;;;0.00;0.00;;;;;;;;;;5055454;28;20024;-76
2023/08/13 02:12:41;;;;;;;0.00;0.00;;;;;;;;;;5055655;28;20439;-75
2023/08/13 02:15:07;;;;;;;0.20;0.20;;;;;;;;;;5055780;28;20120;-75
2023/08/13 02:17:33;;;;;;;0.40;0.10;;;;;;;;;;5055817;28;20025;-75
2023/08/13 02:19:59;;;;;;;0.40;0.20;;;;;;;;;;5055389;28;20393;-75
2023/08/13 02:22:25;;;;;;;0.13;0.10;;;;;;;;;;5054229;28;20586;-75
2023/08/13 02:24:51;;;;;;;0.00;0.00;;;;;;;;;;5055040;28;20029;-75
2023/08/13 02:27:17;;;;;;;0.00;0.00;;;;;;;;;;5055388;28;20055;-75
2023/08/13 02:29:43;;;;;;;0.10;0.10;;;;;;;;;;5055252;28;20585;-75
2023/08/13 02:32:10;;;;;;;0.00;0.00;;;;;;;;;;5055251;28;20037;-75
2023/08/13 02:34:43;;;;;;;0.00;0.00;;;;;;;;;;5055255;28;20055;-75
2023/08/13 02:37:09;;;;;;;0.08;0.08;;;;;;;;;;5055162;28;20025;-75
2023/08/13 02:39:35;;;;;;;0.00;0.00;;;;;;;;;;5053279;28;20079;-75
2023/08/13 02:42:01;;;;;;;0.22;0.20;;;;;;;;;;5055125;28;20025;-76
2023/08/13 02:44:27;;;;;;;0.00;0.00;;;;;;;;;;5054499;28;20517;-75
2023/08/13 02:46:53;;;;;;;0.00;0.00;;;;;;;;;;5055179;28;20029;-75
2023/08/13 02:49:19;;;;;;;0.65;0.10;;;;;;;;;;5055129;28;20082;-75
2023/08/13 02:51:45;;;;;;;0.32;0.30;;;;;;;;;;5054466;28;20024;-75
2023/08/13 02:54:11;;;;;;;0.00;0.00;;;;;;;;;;5054365;28;20039;-75
2023/08/13 02:56:38;;;;;;;0.20;0.20;;;;;;;;;;5054247;28;20017;-75
2023/08/13 02:59:04;;;;;;;0.10;0.10;;;;;;;;;;5054812;28;20029;-75
2023/08/13 03:01:30;;;;;;;0.10;0.10;;;;;;;;;;5054732;28;20033;-75
2023/08/13 03:04:00;;;;;;;0.10;0.10;;;;;;;;;;5054548;28;20027;-75
2023/08/13 03:06:26;;;;;;;0.15;0.10;;;;;;;;;;5054537;28;20394;-75
2023/08/13 03:08:52;;;;;;;1.40;0.20;;;;;;;;;;5054296;28;20100;-75
2023/08/13 03:11:18;;;;;;;0.10;0.10;;;;;;;;;;5054678;28;20021;-75
2023/08/13 03:13:44;;;;;;;7.38;0.98;;;;;;;;;;5054390;28;20025;-75
2023/08/13 03:16:10;;;;;;;0.10;0.10;;;;;;;;;;5054522;28;20096;-75
2023/08/13 03:18:36;;;;;;;0.00;0.00;;;;;;;;;;5054614;28;20075;-75
2023/08/13 03:21:02;;;;;;;0.10;0.10;;;;;;;;;;5054052;28;20136;-75
2023/08/13 03:23:29;;;;;;;0.00;0.00;;;;;;;;;;5053872;28;20097;-75
2023/08/13 03:25:55;;;;;;;0.10;0.10;;;;;;;;;;5054339;28;20029;-75
2023/08/13 03:28:21;;;;;;;0.10;0.10;;;;;;;;;;5054184;28;20036;-75
2023/08/13 03:30:47;;;;;;;0.15;0.15;;;;;;;;;;5054096;28;20021;-75
2023/08/13 03:33:13;;;;;;;0.00;0.00;;;;;;;;;;5054088;28;20553;-74
2023/08/13 03:35:39;;;;;;;0.00;0.00;;;;;;;;;;5054119;28;20032;-75
2023/08/13 03:38:05;;;;;;;0.00;0.00;;;;;;;;;;5053784;28;20159;-75
2023/08/13 03:40:32;;;;;;;0.05;0.05;;;;;;;;;;5053769;28;20036;-74
2023/08/13 03:42:58;;;;;;;0.10;0.10;;;;;;;;;;5053975;28;20059;-75
2023/08/13 03:45:24;;;;;;;0.13;0.13;;;;;;;;;;5054019;28;20070;-75
2023/08/13 03:47:50;;;;;;;0.00;0.00;;;;;;;;;;5054032;28;20020;-75
2023/08/13 03:50:16;;;;;;;0.10;0.10;;;;;;;;;;5053804;28;20362;-75
2023/08/13 03:52:42;;;;;;;0.00;0.00;;;;;;;;;;5053478;28;20100;-75
2023/08/13 03:55:08;;;;;;;0.08;0.08;;;;;;;;;;5053319;28;20144;-75
2023/08/13 03:57:34;;;;;;;0.10;0.10;;;;;;;;;;5053083;28;20032;-75
2023/08/13 04:00:00;;;;;;;0.55;0.10;;;;;;;;;;5053420;28;20033;-75
2023/08/13 04:02:26;;;;;;;0.10;0.10;;;;;;;;;;5053569;28;20051;-75
2023/08/13 04:04:52;;;;;;;0.10;0.10;;;;;;;;;;5053176;28;20033;-74
2023/08/13 04:07:18;;;;;;;0.10;0.10;;;;;;;;;;5053260;28;20028;-75
2023/08/13 04:09:44;;;;;;;0.00;0.00;;;;;;;;;;5053486;28;20494;-75
2023/08/13 04:12:10;;;;;;;0.10;0.10;;;;;;;;;;5053423;28;20017;-74
2023/08/13 04:14:36;;;;;;;0.10;0.10;;;;;;;;;;5053581;28;20033;-75
2023/08/13 04:17:03;;;;;;;0.17;0.17;;;;;;;;;;5053503;28;20071;-75
2023/08/13 04:19:30;;;;;;;0.10;0.10;;;;;;;;;;5052903;28;20028;-74
2023/08/13 04:21:56;;;;;;;0.10;0.10;;;;;;;;;;5052932;28;20549;-75
2023/08/13 04:24:22;;;;;;;0.08;0.08;;;;;;;;;;5052971;28;20025;-75
2023/08/13 04:26:48;;;;;;;0.10;0.10;;;;;;;;;;5052966;28;20507;-75
2023/08/13 04:29:14;;;;;;;0.00;0.00;;;;;;;;;;5053131;28;20466;-74
2023/08/13 04:31:40;;;;;;;0.03;0.03;;;;;;;;;;5052905;28;20044;-75
2023/08/13 04:34:06;;;;;;;0.20;0.20;;;;;;;;;;5052591;28;20025;-75
2023/08/13 04:36:33;;;;;;;0.30;0.30;;;;;;;;;;5052933;28;20386;-74
2023/08/13 04:38:58;;;;;;;0.00;0.00;;;;;;;;;;5052777;28;20025;-74
2023/08/13 04:41:24;;;;;;;0.20;0.20;;;;;;;;;;5052659;28;20147;-74
2023/08/13 04:43:50;;;;;;;0.10;0.10;;;;;;;;;;5052896;28;20096;-74
2023/08/13 04:46:16;;;;;;;0.20;0.20;;;;;;;;;;5052929;28;20021;-75
2023/08/13 04:48:44;;;;;;;0.10;0.10;;;;;;;;;;5052458;28;20032;-75
2023/08/13 04:51:10;;;;;;;0.03;0.03;;;;;;;;;;5052884;28;20028;-75
2023/08/13 04:53:36;;;;;;;0.03;0.03;;;;;;;;;;5052822;28;20104;-75
2023/08/13 04:56:02;;;;;;;0.05;0.05;;;;;;;;;;5052554;28;20397;-74
2023/08/13 04:58:28;;;;;;;0.10;0.10;;;;;;;;;;5051178;28;20366;-75
2023/08/13 05:00:54;;;;;;;0.22;0.22;;;;;;;;;;5052354;28;20043;-74
2023/08/13 05:03:20;;;;;;;0.10;0.10;;;;;;;;;;5051972;28;20021;-75
2023/08/13 05:05:46;;;;;;;0.25;0.25;;;;;;;;;;5052253;28;20112;-74
2023/08/13 05:08:15;;;;;;;0.10;0.10;;;;;;;;;;5051953;28;20021;-73
2023/08/13 05:10:41;;;;;;;0.00;0.00;;;;;;;;;;5051804;28;20044;-75
2023/08/13 05:13:07;;;;;;;0.20;0.20;;;;;;;;;;5051944;28;20130;-75
2023/08/13 05:15:33;;;;;;;0.00;0.00;;;;;;;;;;5051856;28;20031;-74
2023/08/13 05:17:59;;;;;;;0.10;0.10;;;;;;;;;;5051824;28;20024;-75
2023/08/13 05:20:25;;;;;;;0.15;0.15;;;;;;;;;;5051144;28;20528;-75
2023/08/13 05:22:52;;;;;;;0.20;0.20;;;;;;;;;;5052178;28;20045;-76
2023/08/13 05:25:18;;;;;;;0.10;0.10;;;;;;;;;;5052075;28;20033;-75
2023/08/13 05:27:44;;;;;;;0.10;0.10;;;;;;;;;;5052187;28;20052;-75
2023/08/13 05:30:13;;;;;;;3.30;0.30;;;;;;;;;;5052574;28;20068;-75
2023/08/13 05:32:46;;;;;;;0.75;0.57;;;;;;;;;;5051832;28;20029;-75
2023/08/13 05:35:15;;;;;;;0.00;0.00;;;;;;;;;;5052451;28;20041;-75
2023/08/13 05:37:41;;;;;;;0.17;0.17;;;;;;;;;;5052171;28;20541;-75
2023/08/13 05:40:08;;;;;;;0.20;0.20;;;;;;;;;;5051827;28;20133;-74
2023/08/13 05:42:34;;;;;;;0.08;0.08;;;;;;;;;;5052005;28;20051;-75
2023/08/13 05:45:01;;;;;;;0.15;0.15;;;;;;;;;;5051926;28;20029;-75
2023/08/13 05:47:27;;;;;;;0.20;0.20;;;;;;;;;;5051824;28;20508;-75
2023/08/13 05:49:53;;;;;;;0.10;0.10;;;;;;;;;;5052265;28;20021;-74
2023/08/13 05:52:19;;;;;;;0.63;0.57;;;;;;;;;;5051821;28;20104;-76
2023/08/13 05:54:48;;;;;;;0.38;0.38;;;;;;;;;;5051818;28;20096;-76
2023/08/13 05:57:14;;;;;;;0.40;0.40;;;;;;;;;;5051773;28;20061;-75
2023/08/13 05:59:40;;;;;;;0.43;0.43;;;;;;;;;;5051877;28;20065;-77
2023/08/13 06:02:07;;;;;;;0.20;0.20;;;;;;;;;;5051461;28;20547;-77
2023/08/13 06:04:36;;;;;;;0.10;0.10;;;;;;;;;;5050390;28;20028;-77
2023/08/13 06:07:03;;;;;;;0.10;0.10;;;;;;;;;;5041911;28;20029;-77
2023/08/13 06:09:29;;;;;;;0.20;0.20;;;;;;;;;;5040500;28;20500;-77
2023/08/13 06:11:55;;;;;;;0.30;0.15;;;;;;;;;;5040067;28;20025;-77
2023/08/13 06:14:21;;;;;;;0.10;0.10;;;;;;;;;;5040698;28;20112;-77
2023/08/13 06:16:47;;;;;;;0.30;0.30;;;;;;;;;;5037341;28;20406;-78
2023/08/13 06:19:13;;;;;;;0.00;0.00;;;;;;;;;;5032418;28;20044;-77
2023/08/13 06:21:39;;;;;;;0.20;0.20;;;;;;;;;;5035399;28;20136;-77
2023/08/13 06:24:06;;;;;;;0.32;0.32;;;;;;;;;;5042838;28;20132;-79
2023/08/13 06:26:32;;;;;;;0.13;0.13;;;;;;;;;;5055315;28;20033;-75
2023/08/13 06:28:58;;;;;;;0.05;0.05;;;;;;;;;;5055215;28;20028;-75
2023/08/13 06:31:24;;;;;;;0.05;0.05;;;;;;;;;;5054949;28;20029;-75
2023/08/13 06:33:50;;;;;;;0.05;0.05;;;;;;;;;;5055090;28;20024;-75
2023/08/13 06:36:16;;;;;;;0.10;0.10;;;;;;;;;;5055236;28;20021;-75
2023/08/13 06:38:43;;;;;;;0.00;0.00;;;;;;;;;;5055004;28;20484;-75
2023/08/13 06:41:09;;;;;;;0.20;0.20;;;;;;;;;;5054947;28;20041;-75
2023/08/13 06:43:35;;;;;;;0.60;0.20;;;;;;;;;;5055028;28;20025;-75
2023/08/13 06:46:02;;;;;;;0.10;0.10;;;;;;;;;;5055081;28;20037;-75
2023/08/13 06:48:28;;;;;;;0.75;0.43;;;;;;;;;;5055075;28;20021;-75
2023/08/13 06:50:58;;;;;;;0.10;0.10;;;;;;;;;;5055255;28;20112;-75
2023/08/13 06:53:24;;;;;;;0.52;0.45;;;;;;;;;;5055000;28;20078;-75
2023/08/13 06:55:51;;;;;;;0.30;0.15;;;;;;;;;;5055045;28;20040;-75
2023/08/13 06:58:17;;;;;;;0.40;0.40;;;;;;;;;;5054915;28;20382;-75
2023/08/13 07:00:44;;;;;;;0.43;0.43;;;;;;;;;;5054295;28;20120;-75
2023/08/13 07:03:11;;;;;;;0.80;0.57;;;;;;;;;;5054697;28;20020;-75
2023/08/13 07:05:37;;;;;;;0.10;0.10;;;;;;;;;;5054491;28;20025;-75
2023/08/13 07:08:04;;;;;;;0.40;0.13;;;;;;;;;;5054551;28;20037;-75
2023/08/13 07:10:31;;;;;;;0.10;0.10;;;;;;;;;;5054530;28;20029;-75
2023/08/13 07:12:57;;;;;;;0.38;0.28;;;;;;;;;;5054439;28;20021;-75
2023/08/13 07:15:23;;;;;;;0.00;0.00;;;;;;;;;;5053239;28;20032;-76
2023/08/13 07:17:49;;;;;;;0.10;0.10;;;;;;;;;;5053949;28;20021;-77
2023/08/13 07:20:15;;;;;;;0.38;0.38;;;;;;;;;;5054232;28;20091;-77
2023/08/13 07:22:42;;;;;;;0.10;0.10;;;;;;;;;;5052320;28;20072;-77
2023/08/13 07:25:09;;;;;;;0.10;0.10;;;;;;;;;;5053848;28;20034;-77
2023/08/13 07:27:35;;;;;;;0.65;0.52;;;;;;;;;;5059584;28;20420;-77
2023/08/13 07:30:01;;;;;;;0.20;0.20;;;;;;;;;;5059260;28;20040;-77
2023/08/13 07:32:28;;;;;;;0.10;0.10;;;;;;;;;;5053656;28;20021;-77
2023/08/13 07:34:54;;;;;;;0.05;0.05;;;;;;;;;;5054024;28;20524;-77
2023/08/13 07:37:21;;;;;;;0.35;0.30;;;;;;;;;;5053158;28;20032;-77
2023/08/13 07:39:47;;;;;;;0.30;0.30;;;;;;;;;;5052237;28;20425;-77
2023/08/13 07:42:14;;;;;;;0.10;0.10;;;;;;;;;;5053707;28;20025;-77
2023/08/13 07:44:40;;;;;;;0.00;0.00;;;;;;;;;;5053607;28;20036;-77
2023/08/13 07:47:06;;;;;;;0.28;0.28;;;;;;;;;;5041074;28;20409;-78
2023/08/13 07:49:32;;;;;;;0.55;0.22;;;;;;;;;;5034083;28;20037;-77
2023/08/13 07:51:58;;;;;;;0.20;0.20;;;;;;;;;;5033823;28;20406;-77
2023/08/13 07:54:24;;;;;;;0.52;0.32;;;;;;;;;;5050574;28;20508;-77
2023/08/13 07:56:50;;;;;;;0.25;0.25;;;;;;;;;;5052196;28;20025;-77
2023/08/13 07:59:16;;;;;;;0.25;0.25;;;;;;;;;;5049186;28;20025;-77
2023/08/13 08:01:42;;;;;;;0.00;0.00;;;;;;;;;;5046112;28;20029;-77
2023/08/13 08:04:08;;;;;;;0.30;0.30;;;;;;;;;;5035406;28;20104;-78
2023/08/13 08:06:35;;;;;;;0.20;0.20;;;;;;;;;;5053013;28;20029;-78
2023/08/13 08:09:01;;;;;;;0.10;0.10;;;;;;;;;;5052859;28;20064;-78
2023/08/13 08:11:27;;;;;;;0.10;0.10;;;;;;;;;;5053305;28;20013;-77
2023/08/13 08:13:53;;;;;;;0.30;0.13;;;;;;;;;;5052907;28;20029;-78
2023/08/13 08:16:19;;;;;;;0.38;0.13;;;;;;;;;;5053265;28;20025;-78
2023/08/13 08:18:45;;;;;;;0.22;0.22;;;;;;;;;;5053113;28;20490;-78
2023/08/13 08:21:11;;;;;;;0.00;0.00;;;;;;;;;;5053257;28;20049;-78
2023/08/13 08:23:37;;;;;;;0.10;0.10;;;;;;;;;;5051503;28;20021;-77
2023/08/13 08:26:03;;;;;;;0.10;0.10;;;;;;;;;;5052884;28;20501;-78
2023/08/13 08:28:29;;;;;;;0.22;0.22;;;;;;;;;;5052749;28;20025;-77
2023/08/13 08:30:55;;;;;;;0.08;0.08;;;;;;;;;;5035993;28;20033;-77
2023/08/13 08:33:23;;;;;;;0.10;0.10;;;;;;;;;;5033196;28;20025;-77
2023/08/13 08:35:49;;;;;;;0.05;0.05;;;;;;;;;;5048640;28;20520;-78
2023/08/13 08:38:15;;;;;;;0.20;0.20;;;;;;;;;;5050818;28;20034;-78
2023/08/13 08:40:46;;;;;;;0.10;0.10;;;;;;;;;;5032428;28;20044;-78
2023/08/13 08:43:13;;;;;;;0.80;0.20;;;;;;;;;;5041396;28;20021;-76
2023/08/13 08:45:39;;;;;;;0.20;0.20;;;;;;;;;;5051500;28;20033;-75
2023/08/13 08:48:06;;;;;;;0.40;0.40;;;;;;;;;;5052020;28;20021;-75
2023/08/13 08:50:33;;;;;;;0.10;0.10;;;;;;;;;;5052907;28;20056;-75
2023/08/13 08:53:00;;;;;;;0.40;0.40;;;;;;;;;;5051566;28;20520;-71
2023/08/13 08:55:26;;;;;;;0.88;0.85;;;;;;;;;;5052450;28;20503;-72
2023/08/13 08:57:54;;;;;;;1.23;0.57;;;;;;;;;;5052137;28;20029;-72
2023/08/13 09:00:20;;;;;;;0.75;0.32;;;;;;;;;;5052422;28;20068;-72
2023/08/13 09:02:46;;;;;;;0.32;0.20;;;;;;;;;;5052577;28;20094;-72
2023/08/13 09:05:12;;;;;;;0.20;0.20;;;;;;;;;;5052356;28;20029;-71
2023/08/13 09:07:45;;;;;;;0.25;0.25;;;;;;;;;;5052674;28;20025;-71
2023/08/13 09:10:11;;;;;;;0.22;0.22;;;;;;;;;;5052262;28;20370;-72
2023/08/13 09:12:38;;;;;;;0.10;0.10;;;;;;;;;;5052589;28;20024;-72
2023/08/13 09:15:12;;;;;;;0.60;0.40;;;;;;;;;;5052443;28;20035;-72
2023/08/13 09:17:38;;;;;;;0.30;0.20;;;;;;;;;;5052236;28;20021;-72
2023/08/13 09:20:16;;;;;;;0.40;0.40;;;;;;;;;;5052291;28;20025;-72
2023/08/13 09:22:48;;;;;;;0.63;0.20;;;;;;;;;;5052401;28;20048;-72
2023/08/13 09:25:15;;;;;;;6.65;1.23;;;;;;;;;;5051886;28;20024;-72
2023/08/13 09:27:42;;;;;;;0.63;0.47;;;;;;;;;;5052443;28;20051;-72
2023/08/13 09:30:12;;;;;;;0.50;0.20;;;;;;;;;;5052233;28;20030;-72
2023/08/13 09:32:38;;;;;;;0.10;0.10;;;;;;;;;;5052363;28;20029;-72
2023/08/13 09:35:04;;;;;;;0.25;0.25;;;;;;;;;;5050991;28;20025;-72
2023/08/13 09:37:30;;;;;;;0.45;0.45;;;;;;;;;;5052327;28;20378;-72
2023/08/13 09:39:57;;;;;;;0.13;0.10;;;;;;;;;;5051791;28;20032;-72
2023/08/13 09:42:23;;;;;;;0.20;0.20;;;;;;;;;;5052156;28;20131;-72
2023/08/13 09:44:56;;;;;;;0.80;0.50;;;;;;;;;;5052237;28;20070;-72
2023/08/13 09:47:25;;;;;;;0.43;0.43;;;;;;;;;;5052184;28;20489;-71
2023/08/13 09:49:51;;;;;;;0.13;0.13;;;;;;;;;;5052145;28;20036;-71
2023/08/13 09:52:21;;;;;;;0.20;0.20;;;;;;;;;;5052194;28;20021;-72
2023/08/13 09:54:57;;;;;;;0.32;0.32;;;;;;;;;;5053712;28;20079;-72
2023/08/13 09:57:24;;;;;;;0.30;0.30;;;;;;;;;;5056108;28;20044;-72
2023/08/13 09:59:50;;;;;;;0.10;0.10;;;;;;;;;;5055924;28;20124;-72
2023/08/13 10:02:18;;;;;;;0.10;0.10;;;;;;;;;;5056080;28;20116;-72
2023/08/13 10:04:45;;;;;;;0.10;0.10;;;;;;;;;;5056024;28;20021;-72
2023/08/13 10:07:11;;;;;;;0.10;0.10;;;;;;;;;;5055916;28;20116;-71
2023/08/13 10:09:38;;;;;;;0.17;0.17;;;;;;;;;;5055667;28;20025;-72
2023/08/13 10:12:09;;;;;;;0.10;0.10;;;;;;;;;;5055928;28;20029;-72
2023/08/13 10:14:35;;;;;;;0.00;0.00;;;;;;;;;;5054386;28;20450;-72
2023/08/13 10:17:04;;;;;;;0.00;0.00;;;;;;;;;;5055929;28;20091;-72
2023/08/13 10:19:30;;;;;;;0.10;0.10;;;;;;;;;;5055719;28;20078;-71
2023/08/13 10:21:57;;;;;;;0.15;0.15;;;;;;;;;;5055131;28;20045;-72
2023/08/13 10:24:23;;;;;;;0.25;0.22;;;;;;;;;;5055576;28;20022;-72
2023/08/13 10:26:49;;;;;;;0.10;0.10;;;;;;;;;;5055519;28;20033;-71
2023/08/13 10:29:19;;;;;;;0.98;0.25;;;;;;;;;;5055437;28;20045;-72
2023/08/13 10:31:54;;;;;;;0.10;0.10;;;;;;;;;;5055581;28;20150;-72
2023/08/13 10:34:38;;;;;;;3.40;0.20;;;;;;;;;;5054268;28;20021;-72
2023/08/13 10:37:08;;;;;;;0.32;0.32;;;;;;;;;;5055069;28;20028;-72
2023/08/13 10:39:35;;;;;;;0.00;0.00;;;;;;;;;;5055249;28;20387;-72
2023/08/13 10:42:03;;;;;;;0.55;0.50;;;;;;;;;;5055279;28;20421;-73
2023/08/13 10:44:30;;;;;;;0.30;0.30;;;;;;;;;;5055319;28;20036;-72
2023/08/13 10:46:56;;;;;;;0.10;0.10;;;;;;;;;;5055346;28;20086;-72
2023/08/13 10:49:23;;;;;;;0.10;0.10;;;;;;;;;;5055256;28;20087;-72
2023/08/13 10:51:49;;;;;;;0.10;0.10;;;;;;;;;;5054949;28;20467;-72
2023/08/13 10:54:15;;;;;;;0.65;0.47;;;;;;;;;;5055232;28;20193;-72
2023/08/13 10:56:50;;;;;;;0.20;0.20;;;;;;;;;;5055182;28;20029;-72
2023/08/13 10:59:16;;;;;;;0.17;0.17;;;;;;;;;;5055081;28;20029;-72
2023/08/13 11:02:01;;;;;;;0.45;0.35;;;;;;;;;;5054989;28;20071;-72
2023/08/13 11:04:27;;;;;;;0.10;0.10;;;;;;;;;;5054796;28;20052;-72
2023/08/13 11:06:53;;;;;;;0.08;0.08;;;;;;;;;;5054206;28;20075;-72
2023/08/13 11:09:19;;;;;;;0.00;0.00;;;;;;;;;;5054885;28;20060;-72
2023/08/13 11:11:46;;;;;;;0.82;0.68;;;;;;;;;;5054746;28;20108;-72
2023/08/13 11:14:12;;;;;;;0.10;0.10;;;;;;;;;;5054780;28;20078;-73
2023/08/13 11:16:38;;;;;;;2.17;0.25;;;;;;;;;;5054820;28;20033;-72
2023/08/13 11:19:04;;;;;;;0.00;0.00;;;;;;;;;;5054712;28;20103;-73
2023/08/13 11:21:30;;;;;;;0.30;0.30;;;;;;;;;;5054136;28;20053;-73
2023/08/13 11:23:56;;;;;;;0.20;0.20;;;;;;;;;;5054536;28;20024;-74
2023/08/13 11:26:22;;;;;;;0.38;0.38;;;;;;;;;;5053338;28;20044;-73
2023/08/13 11:28:51;;;;;;;0.30;0.30;;;;;;;;;;5054288;28;20033;-73
2023/08/13 11:31:17;;;;;;;0.32;0.32;;;;;;;;;;5054479;28;20040;-73
2023/08/13 11:33:43;;;;;;;0.10;0.10;;;;;;;;;;5054533;28;20545;-73
2023/08/13 11:36:09;;;;;;;0.20;0.20;;;;;;;;;;5054084;28;20021;-73
2023/08/13 11:38:35;;;;;;;0.10;0.10;;;;;;;;;;5054453;28;20029;-73
2023/08/13 11:41:10;;;;;;;0.30;0.25;;;;;;;;;;5054171;28;20522;-73
2023/08/13 11:43:36;;;;;;;0.40;0.40;;;;;;;;;;5054316;28;20482;-73
2023/08/13 11:46:03;;;;;;;0.60;0.38;;;;;;;;;;5054472;28;20036;-73
2023/08/13 11:48:31;;;;;;;0.20;0.20;;;;;;;;;;5054132;28;20048;-73
2023/08/13 11:51:10;;;;;;;0.20;0.20;;;;;;;;;;5053794;28;20495;-73
2023/08/13 11:53:43;;;;;;;0.40;0.40;;;;;;;;;;5054096;28;20493;-74
2023/08/13 11:56:10;;;;;;;0.20;0.20;;;;;;;;;;5054041;28;20566;-73
2023/08/13 11:58:37;;;;;;;3.25;0.73;;;;;;;;;;5053953;28;20051;-73
2023/08/13 12:01:03;;;;;;;0.20;0.20;;;;;;;;;;5053815;28;20033;-73
2023/08/13 12:03:39;;;;;;;4.10;1.08;;;;;;;;;;5053594;28;20481;-73
2023/08/13 12:06:06;;;;;;;0.50;0.50;;;;;;;;;;5052332;28;20489;-74
2023/08/13 12:08:32;;;;;;;0.30;0.30;;;;;;;;;;5053709;28;20033;-73
2023/08/13 12:10:58;;;;;;;0.30;0.30;;;;;;;;;;5053808;28;20025;-73
2023/08/13 12:13:25;;;;;;;0.20;0.20;;;;;;;;;;5053802;28;20485;-74
2023/08/13 12:15:51;;;;;;;0.20;0.20;;;;;;;;;;5053701;28;20075;-74
2023/08/13 12:18:17;;;;;;;0.30;0.30;;;;;;;;;;5052278;28;20508;-74
2023/08/13 12:20:43;;;;;;;0.30;0.30;;;;;;;;;;5053330;28;20477;-74
2023/08/13 12:23:10;;;;;;;1.20;0.63;;;;;;;;;;5053387;28;20045;-74
2023/08/13 12:25:36;;;;;;;0.40;0.40;;;;;;;;;;5033687;28;20033;-74
2023/08/13 12:28:03;;;;;;;0.30;0.30;;;;;;;;;;5033391;28;20036;-73
2023/08/13 12:30:29;;;;;;;0.28;0.28;;;;;;;;;;5033348;28;20026;-73
2023/08/13 12:32:55;;;;;;;0.57;0.40;;;;;;;;;;5033066;28;20025;-73
2023/08/13 12:35:22;;;;;;;0.55;0.55;;;;;;;;;;5033465;28;20108;-74
2023/08/13 12:37:48;;;;;;;0.30;0.30;;;;;;;;;;5033316;28;20021;-74
2023/08/13 12:40:14;;;;;;;0.28;0.28;;;;;;;;;;5033140;28;20061;-74
2023/08/13 12:42:40;;;;;;;0.30;0.30;;;;;;;;;;5033227;28;20045;-74
2023/08/13 12:45:07;;;;;;;0.30;0.30;;;;;;;;;;5033217;28;20033;-74
2023/08/13 12:47:36;;;;;;;0.20;0.20;;;;;;;;;;5032947;28;20021;-74
2023/08/13 12:50:06;;;;;;;0.50;0.50;;;;;;;;;;5033070;28;20104;-74
2023/08/13 12:52:32;;;;;;;0.30;0.30;;;;;;;;;;5033072;28;20514;-74
2023/08/13 12:54:58;;;;;;;0.28;0.28;;;;;;;;;;5033058;28;20077;-74
2023/08/13 12:57:24;;;;;;;0.50;0.50;;;;;;;;;;5033013;28;20478;-74
2023/08/13 12:59:50;;;;;;;0.45;0.30;;;;;;;;;;5032792;28;20022;-74
2023/08/13 13:02:16;;;;;;;0.13;0.13;;;;;;;;;;5032607;28;20080;-73
2023/08/13 13:04:42;;;;;;;0.40;0.40;;;;;;;;;;5032856;28;20025;-74
2023/08/13 13:07:08;;;;;;;0.10;0.10;;;;;;;;;;5050902;28;20031;-73
2023/08/13 13:09:34;;;;;;;0.28;0.28;;;;;;;;;;5052702;28;20025;-73
2023/08/13 13:12:00;;;;;;;0.43;0.43;;;;;;;;;;5052749;28;20035;-73
2023/08/13 13:14:26;;;;;;;0.60;0.43;;;;;;;;;;5052665;28;20485;-74
2023/08/13 13:16:52;;;;;;;1.65;1.23;;;;;;;;;;5052490;28;20108;-73
2023/08/13 13:19:18;;;;;;;0.50;0.50;;;;;;;;;;5052444;28;20458;-74
2023/08/13 13:21:44;;;;;;;0.65;0.65;;;;;;;;;;5052434;28;20052;-74
2023/08/13 13:24:10;;;;;;;0.50;0.50;;;;;;;;;;5052425;28;20082;-74
2023/08/13 13:26:36;;;;;;;0.40;0.40;;;;;;;;;;5051240;28;20116;-74
2023/08/13 13:29:03;;;;;;;0.20;0.20;;;;;;;;;;5052328;28;20028;-74
2023/08/13 13:31:29;;;;;;;0.43;0.43;;;;;;;;;;5052064;28;20021;-73
2023/08/13 13:33:55;;;;;;;1.50;0.65;;;;;;;;;;5052367;28;20087;-73
2023/08/13 13:36:21;;;;;;;0.20;0.20;;;;;;;;;;5052365;28;20439;-73
2023/08/13 13:38:48;;;;;;;0.32;0.28;;;;;;;;;;5052345;28;20021;-74
2023/08/13 13:41:14;;;;;;;0.30;0.30;;;;;;;;;;5052304;28;20116;-74
2023/08/13 13:43:40;;;;;;;0.22;0.22;;;;;;;;;;5052414;28;20440;-73
2023/08/13 13:46:06;;;;;;;0.20;0.20;;;;;;;;;;5052004;28;20032;-73
2023/08/13 13:48:32;;;;;;;2.25;0.60;;;;;;;;;;5052208;28;20017;-74
2023/08/13 13:50:58;;;;;;;0.82;0.82;;;;;;;;;;5052334;28;20031;-74
2023/08/13 13:53:24;;;;;;;0.43;0.43;;;;;;;;;;5052223;28;20443;-73
2023/08/13 13:55:50;;;;;;;5.65;1.15;;;;;;;;;;5052304;28;20066;-73
2023/08/13 13:58:16;;;;;;;0.57;0.55;;;;;;;;;;5052233;28;20017;-73
2023/08/13 14:00:43;;;;;;;0.52;0.52;;;;;;;;;;5051874;28;20052;-73
2023/08/13 14:03:09;;;;;;;0.70;0.68;;;;;;;;;;5052221;28;20588;-73
2023/08/13 14:05:35;;;;;;;0.65;0.65;;;;;;;;;;5052041;28;20060;-73
2023/08/13 14:08:01;;;;;;;1.30;0.50;;;;;;;;;;5052171;28;20033;-73
2023/08/13 14:10:27;;;;;;;0.35;0.35;;;;;;;;;;5052282;28;20412;-73
2023/08/13 14:12:53;;;;;;;2.20;0.88;;;;;;;;;;5052168;28;20025;-73
2023/08/13 14:15:19;;;;;;;0.45;0.45;;;;;;;;;;5051768;28;20482;-73
2023/08/13 14:17:45;;;;;;;1.48;0.80;;;;;;;;;;5052107;28;20025;-73
2023/08/13 14:20:12;;;;;;;0.73;0.73;;;;;;;;;;5051824;28;20040;-72
2023/08/13 14:22:38;;;;;;;0.65;0.57;;;;;;;;;;5051973;28;20029;-73
2023/08/13 14:25:05;;;;;;;2.60;0.95;;;;;;;;;;5051877;28;20029;-73
2023/08/13 14:27:31;;;;;;;0.20;0.20;;;;;;;;;;5051908;28;20029;-73
2023/08/13 14:29:57;;;;;;;0.43;0.35;;;;;;;;;;5051421;28;20029;-72
2023/08/13 14:32:23;;;;;;;0.80;0.70;;;;;;;;;;5052079;28;20033;-73
2023/08/13 14:34:52;;;;;;;0.30;0.30;;;;;;;;;;5051903;28;20052;-73
2023/08/13 14:37:18;;;;;;;0.20;0.20;;;;;;;;;;5052086;28;20105;-72
2023/08/13 14:39:44;;;;;;;0.45;0.45;;;;;;;;;;5051804;28;20049;-73